Time;durP1;ratioP1;P1;durP2;ratioP2;P2;SDS_P1;SDS_P2;PMS_P1;PMS_P2;Temp;Humidity;BMP_temperature;BMP_pressure;BME280_temperature;BME280_humidity;BME280_pressure;Samples;Min_cycle;Max_cycle;Signal;HPM_P1;HPM_P2
2022/01/20 00:00:43;;;;;;;;;74.75;57.50;;;;;;;;5053890;28;51169;-45
2022/01/20 00:03:31;;;;;;;;;75.50;63.50;;;;;;;;5053485;28;51151;-45
2022/01/20 00:27:34;;;;;;;;;80.75;68.75;;;;;;;;5055089;28;51190;-47
2022/01/20 00:33:45;;;;;;;;;76.25;62.50;;;;;;;;5055049;27;51131;-47
2022/01/20 00:39:28;;;;;;;;;77.25;68.75;;;;;;;;5054736;28;51135;-48
2022/01/20 00:42:12;;;;;;;;;76.00;65.25;;;;;;;;5056214;28;51619;-50
2022/01/20 00:44:56;;;;;;;;;79.25;69.00;;;;;;;;5057285;28;51347;-48
2022/01/20 00:47:41;;;;;;;;;83.00;71.00;;;;;;;;5052426;28;51138;-51
2022/01/20 00:50:25;;;;;;;;;86.00;75.75;;;;;;;;5050714;28;51226;-47
2022/01/20 00:53:09;;;;;;;;;90.50;81.00;;;;;;;;5049314;28;51597;-46
2022/01/20 00:55:54;;;;;;;;;91.00;81.75;;;;;;;;5051077;28;51177;-46
2022/01/20 00:58:39;;;;;;;;;92.75;80.25;;;;;;;;5053357;28;51080;-46
2022/01/20 01:01:23;;;;;;;;;90.75;82.25;;;;;;;;5059720;28;51464;-48
2022/01/20 01:04:08;;;;;;;;;104.00;89.75;;;;;;;;5051732;28;51230;-46
2022/01/20 01:09:40;;;;;;;;;106.50;94.75;;;;;;;;5061282;27;51248;-47
2022/01/20 01:12:35;;;;;;;;;104.00;92.50;;;;;;;;5058908;28;51269;-47
2022/01/20 01:15:24;;;;;;;;;100.25;88.50;;;;;;;;5054083;28;51202;-46
2022/01/20 01:22:04;;;;;;;;;92.25;78.75;;;;;;;;5057941;28;51166;-48
2022/01/20 01:24:16;;;;;;;;;86.50;77.25;;;;;;;;5059802;28;51142;-47
2022/01/20 01:27:01;;;;;;;;;93.25;82.00;;;;;;;;5055517;28;51142;-45
2022/01/20 01:30:17;;;;;;;;;84.25;76.50;;;;;;;;5059478;28;51180;-47
2022/01/20 01:33:04;;;;;;;;;90.75;82.00;;;;;;;;5057281;28;51224;-48
2022/01/20 01:35:55;;;;;;;;;97.75;85.00;;;;;;;;5059853;28;51360;-46
2022/01/20 01:38:41;;;;;;;;;92.75;80.25;;;;;;;;5058444;27;51546;-49
2022/01/20 01:41:37;;;;;;;;;92.00;80.75;;;;;;;;5064765;27;51109;-47
2022/01/20 01:44:25;;;;;;;;;97.50;84.00;;;;;;;;5051063;28;51200;-46
2022/01/20 01:47:09;;;;;;;;;89.25;77.00;;;;;;;;5059899;28;51274;-47
2022/01/20 01:49:53;;;;;;;;;84.25;75.25;;;;;;;;5059375;28;51230;-48
2022/01/20 01:52:38;;;;;;;;;91.00;77.75;;;;;;;;5061698;28;51554;-47
2022/01/20 01:55:24;;;;;;;;;92.50;78.75;;;;;;;;5059307;28;51129;-46
2022/01/20 01:58:08;;;;;;;;;91.50;79.25;;;;;;;;5060608;27;51599;-47
2022/01/20 02:00:52;;;;;;;;;93.00;80.50;;;;;;;;5054392;28;51107;-46
2022/01/20 02:03:45;;;;;;;;;83.50;78.25;;;;;;;;5058578;28;51616;-46
2022/01/20 02:06:50;;;;;;;;;94.25;83.25;;;;;;;;5054410;28;51179;-47
2022/01/20 02:18:48;;;;;;;;;99.25;85.75;;;;;;;;5055708;28;51515;-48
2022/01/20 02:21:32;;;;;;;;;93.50;82.00;;;;;;;;5059011;27;51106;-46
2022/01/20 02:24:17;;;;;;;;;102.50;88.00;;;;;;;;5057254;28;51520;-46
2022/01/20 02:27:01;;;;;;;;;93.25;78.25;;;;;;;;5058266;28;51240;-47
2022/01/20 02:29:45;;;;;;;;;94.50;81.50;;;;;;;;5058812;27;51558;-48
2022/01/20 02:32:30;;;;;;;;;93.00;84.25;;;;;;;;5061884;27;51212;-48
2022/01/20 02:35:14;;;;;;;;;95.25;84.50;;;;;;;;5057404;28;51490;-46
2022/01/20 02:38:14;;;;;;;;;86.00;80.50;;;;;;;;5057518;28;51194;-47
2022/01/20 02:47:04;;;;;;;;;98.25;89.25;;;;;;;;5058847;28;51109;-47
2022/01/20 02:49:49;;;;;;;;;96.00;86.75;;;;;;;;5055818;28;51072;-46
2022/01/20 02:52:34;;;;;;;;;98.50;87.25;;;;;;;;5060637;28;51160;-47
2022/01/20 02:55:18;;;;;;;;;96.00;80.25;;;;;;;;5058253;28;51072;-47
2022/01/20 02:58:03;;;;;;;;;99.25;88.00;;;;;;;;5060059;27;51074;-47
2022/01/20 03:00:48;;;;;;;;;93.00;81.25;;;;;;;;5057749;28;51166;-46
2022/01/20 03:03:34;;;;;;;;;100.75;89.50;;;;;;;;5056789;28;51176;-46
2022/01/20 03:06:18;;;;;;;;;93.00;83.00;;;;;;;;5058855;28;51237;-46
2022/01/20 03:09:02;;;;;;;;;93.50;81.75;;;;;;;;5056827;28;51050;-49
2022/01/20 03:11:47;;;;;;;;;89.00;78.50;;;;;;;;5055083;27;51327;-46
2022/01/20 03:14:32;;;;;;;;;94.25;85.50;;;;;;;;5067119;27;51167;-46
2022/01/20 03:17:17;;;;;;;;;99.00;85.75;;;;;;;;5051534;28;51217;-47
2022/01/20 03:20:03;;;;;;;;;99.25;85.75;;;;;;;;5054090;27;51157;-46
2022/01/20 03:22:47;;;;;;;;;85.50;78.25;;;;;;;;5055917;27;51116;-46
2022/01/20 03:25:31;;;;;;;;;103.00;93.75;;;;;;;;5051764;28;51272;-47
2022/01/20 03:28:16;;;;;;;;;98.25;92.25;;;;;;;;5050441;28;51189;-46
2022/01/20 03:31:00;;;;;;;;;98.75;85.75;;;;;;;;5051628;28;51177;-46
2022/01/20 03:33:45;;;;;;;;;110.00;92.50;;;;;;;;5052596;28;51475;-46
2022/01/20 03:36:29;;;;;;;;;100.00;89.75;;;;;;;;5052690;28;51225;-46
2022/01/20 03:39:13;;;;;;;;;106.75;90.25;;;;;;;;5054263;28;51143;-47
2022/01/20 03:41:58;;;;;;;;;110.50;92.75;;;;;;;;5056190;28;51230;-46
2022/01/20 03:44:42;;;;;;;;;101.00;92.00;;;;;;;;5050853;28;51114;-47
2022/01/20 03:47:27;;;;;;;;;108.75;97.75;;;;;;;;5049181;28;51074;-47
2022/01/20 03:53:14;;;;;;;;;101.50;86.50;;;;;;;;5054086;28;51078;-46
2022/01/20 03:55:59;;;;;;;;;116.50;99.75;;;;;;;;5055406;28;51073;-46
2022/01/20 03:58:43;;;;;;;;;103.00;93.50;;;;;;;;5049666;28;51672;-47
2022/01/20 04:01:30;;;;;;;;;106.00;90.25;;;;;;;;5052594;28;51252;-47
2022/01/20 04:04:15;;;;;;;;;115.50;103.75;;;;;;;;5052310;28;51142;-46
2022/01/20 04:06:59;;;;;;;;;110.00;97.25;;;;;;;;5052373;28;51174;-47
2022/01/20 04:09:44;;;;;;;;;101.00;90.00;;;;;;;;5060640;27;51195;-47
2022/01/20 04:12:29;;;;;;;;;105.75;90.00;;;;;;;;5059164;27;51331;-48
2022/01/20 04:15:16;;;;;;;;;88.75;85.25;;;;;;;;5049555;28;51485;-48
2022/01/20 04:18:02;;;;;;;;;87.50;78.00;;;;;;;;5054571;28;51183;-46
2022/01/20 04:20:46;;;;;;;;;97.75;87.00;;;;;;;;5054844;28;51067;-47
2022/01/20 04:23:30;;;;;;;;;106.75;93.25;;;;;;;;5057154;28;51217;-46
2022/01/20 04:26:14;;;;;;;;;101.00;85.50;;;;;;;;5054782;28;51157;-47
2022/01/20 04:28:59;;;;;;;;;88.50;84.00;;;;;;;;5054177;28;51096;-45
2022/01/20 04:31:44;;;;;;;;;92.25;81.50;;;;;;;;5060900;27;51201;-50
2022/01/20 04:34:29;;;;;;;;;90.75;78.25;;;;;;;;5056477;28;51523;-46
2022/01/20 04:37:14;;;;;;;;;89.50;82.50;;;;;;;;5057897;28;51163;-45
2022/01/20 04:40:00;;;;;;;;;79.25;72.00;;;;;;;;5063485;28;51189;-45
2022/01/20 04:42:46;;;;;;;;;75.50;62.00;;;;;;;;5049448;28;51110;-47
2022/01/20 04:45:36;;;;;;;;;88.00;77.50;;;;;;;;5052090;28;51372;-46
2022/01/20 05:00:04;;;;;;;;;77.50;70.50;;;;;;;;5050743;28;52134;-46
2022/01/20 05:02:49;;;;;;;;;86.00;73.75;;;;;;;;5051283;28;51193;-49
2022/01/20 05:05:34;;;;;;;;;86.75;76.00;;;;;;;;5051024;28;51114;-49
2022/01/20 05:08:22;;;;;;;;;88.00;79.25;;;;;;;;5055773;28;51185;-50
2022/01/20 05:11:09;;;;;;;;;86.75;77.75;;;;;;;;5053389;28;51149;-49
2022/01/20 05:13:53;;;;;;;;;84.00;76.25;;;;;;;;5052967;28;51071;-46
2022/01/20 05:16:37;;;;;;;;;95.25;85.00;;;;;;;;5049351;28;51124;-48
2022/01/20 05:19:26;;;;;;;;;101.00;83.75;;;;;;;;5051677;28;51201;-46
2022/01/20 05:22:10;;;;;;;;;89.00;81.75;;;;;;;;5057797;28;51230;-45
2022/01/20 05:24:55;;;;;;;;;99.00;89.00;;;;;;;;5050331;28;51177;-48
2022/01/20 05:27:39;;;;;;;;;103.00;87.50;;;;;;;;5053170;28;51114;-49
2022/01/20 05:30:24;;;;;;;;;95.25;87.75;;;;;;;;5051140;28;51412;-47
2022/01/20 05:33:09;;;;;;;;;92.50;80.00;;;;;;;;5069369;28;51639;-49
2022/01/20 05:35:53;;;;;;;;;105.00;90.75;;;;;;;;5053985;28;51246;-47
2022/01/20 05:38:37;;;;;;;;;99.25;86.75;;;;;;;;5054350;28;51186;-46
2022/01/20 05:41:22;;;;;;;;;96.00;84.50;;;;;;;;5052466;28;51473;-47
2022/01/20 05:44:06;;;;;;;;;109.50;95.00;;;;;;;;5050161;28;52060;-46
2022/01/20 05:46:52;;;;;;;;;92.25;86.75;;;;;;;;5057453;28;51153;-45
2022/01/20 05:49:36;;;;;;;;;101.75;92.25;;;;;;;;5056456;28;51104;-45
2022/01/20 05:52:21;;;;;;;;;107.25;93.50;;;;;;;;5054763;28;51146;-46
2022/01/20 05:55:05;;;;;;;;;84.00;75.25;;;;;;;;5053954;28;51516;-46
2022/01/20 05:57:49;;;;;;;;;94.50;80.00;;;;;;;;5058611;28;51272;-46
2022/01/20 06:00:35;;;;;;;;;105.50;90.50;;;;;;;;5045336;27;51306;-46
2022/01/20 06:03:37;;;;;;;;;118.25;104.25;;;;;;;;5054482;28;51412;-46
2022/01/20 06:06:21;;;;;;;;;120.50;112.25;;;;;;;;5057574;28;51359;-46
2022/01/20 06:09:08;;;;;;;;;126.25;115.25;;;;;;;;5057106;28;51242;-46
2022/01/20 06:11:52;;;;;;;;;132.75;113.00;;;;;;;;5060590;28;51070;-47
2022/01/20 06:14:36;;;;;;;;;126.00;116.25;;;;;;;;5055148;28;51564;-47
2022/01/20 06:17:27;;;;;;;;;136.25;115.75;;;;;;;;5073466;27;51297;-46
2022/01/20 06:20:12;;;;;;;;;114.00;98.75;;;;;;;;5058759;28;51281;-45
2022/01/20 06:22:56;;;;;;;;;124.25;105.00;;;;;;;;5056198;28;51261;-47
2022/01/20 06:25:44;;;;;;;;;118.50;104.25;;;;;;;;5057690;28;51180;-47
2022/01/20 06:28:28;;;;;;;;;108.75;98.00;;;;;;;;5059776;28;51480;-46
2022/01/20 06:31:13;;;;;;;;;106.50;92.00;;;;;;;;5058806;28;51197;-46
2022/01/20 06:33:57;;;;;;;;;107.75;96.75;;;;;;;;5059795;28;51153;-45
2022/01/20 06:36:41;;;;;;;;;115.00;99.25;;;;;;;;5060383;28;51378;-49
2022/01/20 06:39:26;;;;;;;;;104.50;88.25;;;;;;;;5060700;28;51159;-47
2022/01/20 06:42:10;;;;;;;;;110.75;95.00;;;;;;;;5058996;28;51142;-46
2022/01/20 06:44:54;;;;;;;;;110.25;93.50;;;;;;;;5059569;28;51153;-46
2022/01/20 06:47:40;;;;;;;;;105.75;93.50;;;;;;;;5058352;28;52062;-48
2022/01/20 06:50:25;;;;;;;;;104.75;90.00;;;;;;;;5059785;28;51165;-47
2022/01/20 06:53:09;;;;;;;;;100.75;84.75;;;;;;;;5059049;28;51353;-48
2022/01/20 06:55:54;;;;;;;;;102.50;91.75;;;;;;;;5059300;28;51153;-48
2022/01/20 06:58:38;;;;;;;;;106.75;92.00;;;;;;;;5054456;28;51249;-48
2022/01/20 07:01:23;;;;;;;;;105.00;90.75;;;;;;;;5052965;28;50938;-49
2022/01/20 07:04:10;;;;;;;;;110.25;95.25;;;;;;;;5056904;28;51419;-45
2022/01/20 07:06:55;;;;;;;;;112.50;97.25;;;;;;;;5057579;28;51313;-45
2022/01/20 07:09:39;;;;;;;;;111.25;93.50;;;;;;;;5057184;28;51414;-48
2022/01/20 07:12:23;;;;;;;;;106.00;91.00;;;;;;;;5051337;28;51404;-47
2022/01/20 07:15:09;;;;;;;;;103.00;95.50;;;;;;;;5055283;28;51133;-46
2022/01/20 07:17:53;;;;;;;;;87.00;69.50;;;;;;;;5063736;27;51180;-45
2022/01/20 07:20:37;;;;;;;;;103.75;89.50;;;;;;;;5052335;28;51446;-46
2022/01/20 07:23:22;;;;;;;;;102.50;85.25;;;;;;;;5055583;28;51169;-47
2022/01/20 07:26:07;;;;;;;;;102.50;88.75;;;;;;;;5053573;28;51106;-48
2022/01/20 07:28:51;;;;;;;;;101.75;87.00;;;;;;;;5053951;28;51336;-48
2022/01/20 07:31:36;;;;;;;;;94.50;77.75;;;;;;;;5052306;28;51224;-46
2022/01/20 07:34:20;;;;;;;;;98.25;84.25;;;;;;;;5056543;28;51546;-46
2022/01/20 07:37:05;;;;;;;;;107.00;87.50;;;;;;;;5059209;28;51164;-49
2022/01/20 07:39:49;;;;;;;;;94.50;81.50;;;;;;;;5058543;28;51213;-48
2022/01/20 07:42:34;;;;;;;;;112.00;90.50;;;;;;;;5057359;27;52081;-48
2022/01/20 07:45:20;;;;;;;;;98.75;88.50;;;;;;;;5058642;28;51197;-48
2022/01/20 07:48:05;;;;;;;;;110.75;91.25;;;;;;;;5058339;27;51526;-46
2022/01/20 07:50:49;;;;;;;;;98.25;82.75;;;;;;;;5059270;28;51192;-49
2022/01/20 07:53:34;;;;;;;;;94.50;78.00;;;;;;;;5057398;27;51358;-49
2022/01/20 07:56:19;;;;;;;;;82.75;78.00;;;;;;;;5056023;28;51125;-49
2022/01/20 07:59:03;;;;;;;;;91.00;72.25;;;;;;;;5057063;28;51160;-50
2022/01/20 08:01:48;;;;;;;;;79.00;66.25;;;;;;;;5054737;28;51241;-47
2022/01/20 08:04:32;;;;;;;;;76.25;64.75;;;;;;;;5055338;28;51189;-45
2022/01/20 08:07:18;;;;;;;;;80.50;68.75;;;;;;;;5057134;27;51569;-45
2022/01/20 08:10:02;;;;;;;;;78.00;62.00;;;;;;;;5057305;28;51098;-48
2022/01/20 08:12:47;;;;;;;;;77.50;59.25;;;;;;;;5057323;28;51184;-49
2022/01/20 08:15:31;;;;;;;;;71.00;57.75;;;;;;;;5059602;27;51077;-45
2022/01/20 08:18:16;;;;;;;;;77.75;64.00;;;;;;;;5055297;28;51383;-47
2022/01/20 08:21:00;;;;;;;;;76.25;64.00;;;;;;;;5056294;28;51168;-45
2022/01/20 08:23:45;;;;;;;;;72.25;58.25;;;;;;;;5057771;27;51216;-46
2022/01/20 08:26:30;;;;;;;;;71.75;56.50;;;;;;;;5055820;28;51154;-48
2022/01/20 08:29:14;;;;;;;;;77.00;59.75;;;;;;;;5058565;27;51222;-47
2022/01/20 08:31:58;;;;;;;;;70.75;54.75;;;;;;;;5059302;27;51038;-46
2022/01/20 08:34:42;;;;;;;;;74.00;59.75;;;;;;;;5060505;27;51859;-48
2022/01/20 08:37:27;;;;;;;;;68.50;53.50;;;;;;;;5057901;28;51145;-47
2022/01/20 08:40:13;;;;;;;;;72.75;56.75;;;;;;;;5056855;28;51451;-46
2022/01/20 08:42:57;;;;;;;;;70.75;55.25;;;;;;;;5054549;28;51251;-45
2022/01/20 08:45:43;;;;;;;;;55.00;41.25;;;;;;;;5052845;28;51127;-45
2022/01/20 08:48:28;;;;;;;;;73.25;60.25;;;;;;;;5053177;28;51562;-47
2022/01/20 08:51:12;;;;;;;;;73.75;55.50;;;;;;;;5053825;28;51196;-49
2022/01/20 08:53:57;;;;;;;;;67.75;52.75;;;;;;;;5057780;28;51083;-55
2022/01/20 08:56:42;;;;;;;;;71.25;57.25;;;;;;;;5057401;28;51535;-52
2022/01/20 08:59:27;;;;;;;;;72.75;55.25;;;;;;;;5055646;28;51693;-42
2022/01/20 09:02:12;;;;;;;;;71.00;53.50;;;;;;;;5057485;28;51205;-43
2022/01/20 09:04:58;;;;;;;;;63.50;52.00;;;;;;;;5050476;28;51339;-42
2022/01/20 09:07:43;;;;;;;;;67.00;52.50;;;;;;;;5049579;28;51380;-41
2022/01/20 09:10:36;;;;;;;;;68.75;52.50;;;;;;;;5052033;28;51081;-42
2022/01/20 09:16:24;;;;;;;;;71.25;55.75;;;;;;;;5053952;28;51178;-42
2022/01/20 09:19:09;;;;;;;;;69.75;52.25;;;;;;;;5058094;28;51197;-41
2022/01/20 09:21:53;;;;;;;;;71.50;55.50;;;;;;;;5055404;28;51103;-41
2022/01/20 09:24:38;;;;;;;;;70.25;53.75;;;;;;;;5060305;28;51544;-41
2022/01/20 09:27:22;;;;;;;;;71.00;55.00;;;;;;;;5060351;28;51205;-41
2022/01/20 09:30:08;;;;;;;;;76.75;59.50;;;;;;;;5061049;28;52057;-42
2022/01/20 09:33:09;;;;;;;;;68.25;56.25;;;;;;;;5059009;28;51356;-42
2022/01/20 09:35:53;;;;;;;;;72.50;58.75;;;;;;;;5059985;28;51243;-41
2022/01/20 09:38:39;;;;;;;;;74.00;58.50;;;;;;;;5061443;28;51568;-42
2022/01/20 09:41:23;;;;;;;;;68.75;54.25;;;;;;;;5056944;28;51207;-42
2022/01/20 09:44:08;;;;;;;;;70.75;54.75;;;;;;;;5058484;28;51683;-42
2022/01/20 09:46:52;;;;;;;;;69.75;57.25;;;;;;;;5059166;28;51074;-42
2022/01/20 09:49:40;;;;;;;;;68.25;51.75;;;;;;;;5060562;27;51623;-42
2022/01/20 09:52:26;;;;;;;;;69.00;50.25;;;;;;;;5055741;27;51190;-42
2022/01/20 09:55:11;;;;;;;;;70.75;54.75;;;;;;;;5057583;28;50965;-42
2022/01/20 09:57:55;;;;;;;;;69.50;54.00;;;;;;;;5039830;28;51208;-42
2022/01/20 10:00:40;;;;;;;;;65.75;47.00;;;;;;;;5035632;28;51177;-42
2022/01/20 10:03:27;;;;;;;;;71.75;58.75;;;;;;;;5040020;28;51671;-42
2022/01/20 10:06:11;;;;;;;;;70.00;56.00;;;;;;;;5039968;28;51155;-43
2022/01/20 10:09:00;;;;;;;;;75.00;58.50;;;;;;;;5039670;28;51197;-42
2022/01/20 10:11:44;;;;;;;;;63.50;50.50;;;;;;;;5036321;28;51241;-42
2022/01/20 10:14:42;;;;;;;;;75.75;56.00;;;;;;;;5039908;28;51574;-42
2022/01/20 10:17:31;;;;;;;;;71.00;55.25;;;;;;;;5039207;28;51218;-42
2022/01/20 10:20:15;;;;;;;;;67.50;51.25;;;;;;;;5036974;28;51386;-42
2022/01/20 10:23:00;;;;;;;;;65.25;47.75;;;;;;;;5037435;28;51530;-42
2022/01/20 10:25:45;;;;;;;;;70.50;54.75;;;;;;;;5039916;28;51253;-42
2022/01/20 10:28:29;;;;;;;;;67.75;49.25;;;;;;;;5036649;28;51673;-42
2022/01/20 10:31:19;;;;;;;;;69.50;54.50;;;;;;;;5053369;28;51087;-42
2022/01/20 10:34:30;;;;;;;;;67.50;48.50;;;;;;;;5040970;28;51027;-41
2022/01/20 10:37:17;;;;;;;;;73.50;56.50;;;;;;;;5039521;28;51185;-42
2022/01/20 10:40:10;;;;;;;;;69.50;53.25;;;;;;;;5039094;28;51732;-42
2022/01/20 10:42:54;;;;;;;;;69.75;54.50;;;;;;;;5039019;28;51107;-42
2022/01/20 10:45:38;;;;;;;;;71.25;57.00;;;;;;;;5038355;28;51150;-42
2022/01/20 10:48:23;;;;;;;;;72.50;57.75;;;;;;;;5038131;28;51560;-42
2022/01/20 10:51:20;;;;;;;;;73.50;55.50;;;;;;;;5038909;28;51325;-41
2022/01/20 10:54:10;;;;;;;;;69.25;56.25;;;;;;;;5039132;28;51459;-42
2022/01/20 10:56:57;;;;;;;;;73.00;58.25;;;;;;;;5052902;28;51211;-42
2022/01/20 10:59:51;;;;;;;;;68.25;54.50;;;;;;;;5060501;28;51158;-43
2022/01/20 11:02:35;;;;;;;;;73.50;61.50;;;;;;;;5056190;28;51216;-42
2022/01/20 11:05:20;;;;;;;;;73.00;58.75;;;;;;;;5059932;28;51457;-42
2022/01/20 11:08:05;;;;;;;;;72.25;59.00;;;;;;;;5059346;27;51348;-41
2022/01/20 11:10:51;;;;;;;;;66.50;54.50;;;;;;;;5058539;28;51418;-42
2022/01/20 11:13:36;;;;;;;;;68.50;55.75;;;;;;;;5057833;28;51467;-42
2022/01/20 11:16:21;;;;;;;;;75.00;60.25;;;;;;;;5051417;28;51994;-41
2022/01/20 11:19:16;;;;;;;;;74.00;58.75;;;;;;;;5058440;28;51562;-41
2022/01/20 11:22:11;;;;;;;;;69.75;58.50;;;;;;;;5060276;27;51145;-41
2022/01/20 11:24:57;;;;;;;;;69.75;56.25;;;;;;;;5058673;28;51090;-41
2022/01/20 11:27:42;;;;;;;;;73.75;61.25;;;;;;;;5058992;28;51185;-41
2022/01/20 11:30:29;;;;;;;;;74.25;59.50;;;;;;;;5059266;28;51566;-42
2022/01/20 11:33:18;;;;;;;;;80.50;61.50;;;;;;;;5058596;28;51464;-42
2022/01/20 11:36:03;;;;;;;;;76.50;64.25;;;;;;;;5060705;27;51241;-41
2022/01/20 11:38:49;;;;;;;;;75.75;57.50;;;;;;;;5058704;27;51105;-42
2022/01/20 11:41:40;;;;;;;;;72.75;56.50;;;;;;;;5062249;27;51126;-42
2022/01/20 11:44:26;;;;;;;;;81.50;68.50;;;;;;;;5059661;28;51480;-42
2022/01/20 11:47:11;;;;;;;;;75.00;63.50;;;;;;;;5057025;28;51162;-42
2022/01/20 11:49:55;;;;;;;;;78.75;62.25;;;;;;;;5059721;28;51363;-41
2022/01/20 11:52:39;;;;;;;;;73.00;62.00;;;;;;;;5060756;27;51171;-42
2022/01/20 11:55:23;;;;;;;;;77.25;61.75;;;;;;;;5051382;28;51135;-42
2022/01/20 11:58:12;;;;;;;;;70.75;56.75;;;;;;;;5057062;28;51284;-42
2022/01/20 12:00:59;;;;;;;;;72.75;60.00;;;;;;;;5057078;28;51226;-41
2022/01/20 12:03:49;;;;;;;;;71.25;60.25;;;;;;;;5037806;28;51282;-42
2022/01/20 12:06:37;;;;;;;;;76.25;61.50;;;;;;;;5045345;28;51268;-42
2022/01/20 12:09:36;;;;;;;;;72.50;62.00;;;;;;;;5050131;28;51108;-42
2022/01/20 12:12:23;;;;;;;;;70.25;59.50;;;;;;;;5060739;27;51093;-42
2022/01/20 12:15:15;;;;;;;;;75.50;62.75;;;;;;;;5053909;27;51152;-41
2022/01/20 12:17:59;;;;;;;;;71.50;58.50;;;;;;;;5058584;28;51284;-41
2022/01/20 12:20:44;;;;;;;;;72.75;60.75;;;;;;;;5063823;27;51461;-42
2022/01/20 12:23:28;;;;;;;;;74.50;59.50;;;;;;;;5059112;27;51166;-42
2022/01/20 12:26:13;;;;;;;;;78.25;68.00;;;;;;;;5054798;27;51117;-42
2022/01/20 12:29:05;;;;;;;;;72.25;65.25;;;;;;;;5048700;27;51439;-42
2022/01/20 12:31:54;;;;;;;;;75.50;61.50;;;;;;;;5056175;28;51221;-42
2022/01/20 12:34:39;;;;;;;;;71.75;56.75;;;;;;;;5055640;28;51416;-42
2022/01/20 12:37:37;;;;;;;;;82.75;67.00;;;;;;;;5046547;28;51133;-41
2022/01/20 12:40:22;;;;;;;;;81.00;69.00;;;;;;;;5055908;28;51075;-42
2022/01/20 12:43:07;;;;;;;;;88.00;73.75;;;;;;;;5053994;28;51196;-41
2022/01/20 12:45:57;;;;;;;;;84.75;72.50;;;;;;;;5052224;28;51158;-41
2022/01/20 12:48:57;;;;;;;;;84.25;68.50;;;;;;;;5052921;28;51266;-42
2022/01/20 12:51:43;;;;;;;;;74.75;61.75;;;;;;;;5052853;28;51142;-41
2022/01/20 12:54:28;;;;;;;;;65.25;51.75;;;;;;;;5052637;28;51512;-41
2022/01/20 12:57:13;;;;;;;;;68.25;53.00;;;;;;;;5055198;28;51212;-42
2022/01/20 12:59:57;;;;;;;;;73.25;58.25;;;;;;;;5056028;28;51661;-41
2022/01/20 13:02:49;;;;;;;;;75.50;62.50;;;;;;;;5050257;28;51343;-41
2022/01/20 13:05:40;;;;;;;;;71.75;59.00;;;;;;;;5054681;28;51400;-42
2022/01/20 13:08:30;;;;;;;;;68.50;50.00;;;;;;;;5056404;28;51185;-42
2022/01/20 13:11:18;;;;;;;;;74.00;55.25;;;;;;;;5053292;28;51695;-42
2022/01/20 13:14:04;;;;;;;;;75.00;59.00;;;;;;;;5054142;28;51153;-41
2022/01/20 13:16:52;;;;;;;;;73.50;55.50;;;;;;;;5058009;28;51162;-41
2022/01/20 13:19:38;;;;;;;;;78.00;62.25;;;;;;;;5055163;28;51107;-41
2022/01/20 13:22:24;;;;;;;;;76.00;62.50;;;;;;;;5056190;28;51076;-41
2022/01/20 13:25:16;;;;;;;;;77.75;61.00;;;;;;;;5043013;28;51155;-41
2022/01/20 13:28:01;;;;;;;;;62.25;49.25;;;;;;;;5053520;28;51275;-41
2022/01/20 13:30:50;;;;;;;;;73.50;59.00;;;;;;;;5051500;28;51440;-40
2022/01/20 13:33:34;;;;;;;;;66.75;49.00;;;;;;;;5053974;28;51624;-41
2022/01/20 13:36:21;;;;;;;;;74.00;56.75;;;;;;;;5053676;28;51161;-41
2022/01/20 13:39:05;;;;;;;;;74.75;62.50;;;;;;;;5055847;28;52626;-41
2022/01/20 13:41:50;;;;;;;;;72.75;57.25;;;;;;;;5053182;28;51170;-41
2022/01/20 13:47:44;;;;;;;;;74.00;56.75;;;;;;;;5054499;28;51197;-41
2022/01/20 13:50:29;;;;;;;;;76.75;61.25;;;;;;;;5056117;28;51677;-41
2022/01/20 13:53:15;;;;;;;;;72.00;58.50;;;;;;;;5053796;28;51139;-41
2022/01/20 13:56:06;;;;;;;;;68.00;51.50;;;;;;;;5054808;28;51164;-41
2022/01/20 13:59:00;;;;;;;;;74.75;62.50;;;;;;;;5054485;28;51349;-41
2022/01/20 14:01:44;;;;;;;;;69.75;55.25;;;;;;;;5055735;28;51438;-41
2022/01/20 14:04:29;;;;;;;;;74.50;57.25;;;;;;;;5055990;28;51256;-41
2022/01/20 14:07:13;;;;;;;;;66.75;49.75;;;;;;;;5054327;28;51095;-41
2022/01/20 14:09:58;;;;;;;;;74.75;60.75;;;;;;;;5056922;28;51447;-41
2022/01/20 14:12:43;;;;;;;;;79.25;61.25;;;;;;;;5059250;28;51379;-41
2022/01/20 14:15:27;;;;;;;;;59.75;49.25;;;;;;;;5059154;28;51194;-41
2022/01/20 14:18:18;;;;;;;;;73.50;59.50;;;;;;;;5057618;28;51094;-41
2022/01/20 14:21:02;;;;;;;;;76.00;63.50;;;;;;;;4988224;28;51429;-41
2022/01/20 14:23:46;;;;;;;;;74.50;65.75;;;;;;;;5000348;28;51107;-41
2022/01/20 14:26:32;;;;;;;;;75.75;62.50;;;;;;;;4999821;28;51286;-41
2022/01/20 14:29:16;;;;;;;;;79.75;67.00;;;;;;;;4990514;28;52381;-42
2022/01/20 14:32:05;;;;;;;;;74.00;59.00;;;;;;;;4996832;28;51157;-41
2022/01/20 14:34:55;;;;;;;;;76.00;60.50;;;;;;;;4998584;28;51225;-42
2022/01/20 14:38:02;;;;;;;;;64.50;49.25;;;;;;;;4999331;28;51196;-41
2022/01/20 14:40:51;;;;;;;;;75.25;62.00;;;;;;;;4999208;28;51300;-41
2022/01/20 14:43:39;;;;;;;;;76.00;62.25;;;;;;;;5000416;28;51190;-41
2022/01/20 14:46:29;;;;;;;;;76.00;61.75;;;;;;;;4998911;28;51568;-41
2022/01/20 14:49:37;;;;;;;;;75.25;63.00;;;;;;;;4992805;28;51252;-41
2022/01/20 14:52:34;;;;;;;;;57.25;42.75;;;;;;;;4996311;28;51582;-42
2022/01/20 14:55:21;;;;;;;;;74.75;61.50;;;;;;;;4995011;28;51331;-41
2022/01/20 14:58:08;;;;;;;;;75.00;60.25;;;;;;;;5000076;28;51123;-41
2022/01/20 15:00:56;;;;;;;;;76.50;66.00;;;;;;;;4999666;28;51383;-42
2022/01/20 15:03:43;;;;;;;;;75.00;61.75;;;;;;;;4997381;28;51342;-41
2022/01/20 15:06:29;;;;;;;;;80.25;67.50;;;;;;;;5000394;28;51169;-42
2022/01/20 15:09:16;;;;;;;;;76.75;63.50;;;;;;;;4992982;28;51323;-42
2022/01/20 15:12:10;;;;;;;;;73.75;61.00;;;;;;;;4994708;28;51267;-41
2022/01/20 15:15:10;;;;;;;;;82.75;68.75;;;;;;;;4995743;28;51160;-41
2022/01/20 15:18:09;;;;;;;;;82.25;66.25;;;;;;;;4999425;28;51200;-42
2022/01/20 15:20:54;;;;;;;;;79.00;65.25;;;;;;;;5000080;28;51117;-42
2022/01/20 15:23:39;;;;;;;;;74.25;62.75;;;;;;;;4998315;28;51369;-42
2022/01/20 15:26:24;;;;;;;;;76.00;65.75;;;;;;;;5000033;28;51450;-42
2022/01/20 15:29:18;;;;;;;;;78.25;65.75;;;;;;;;4984770;28;52124;-41
2022/01/20 15:32:03;;;;;;;;;77.50;68.00;;;;;;;;4987710;28;51342;-41
2022/01/20 15:34:48;;;;;;;;;77.75;65.00;;;;;;;;4990270;28;51177;-41
2022/01/20 15:37:32;;;;;;;;;78.25;66.00;;;;;;;;4996008;28;51379;-42
2022/01/20 15:40:16;;;;;;;;;76.25;64.25;;;;;;;;4998712;28;51154;-42
2022/01/20 15:43:01;;;;;;;;;78.00;65.50;;;;;;;;4999205;28;51225;-42
2022/01/20 15:45:47;;;;;;;;;76.25;61.50;;;;;;;;4998938;28;51093;-42
2022/01/20 15:48:34;;;;;;;;;77.25;68.50;;;;;;;;4998211;28;51141;-42
2022/01/20 15:51:40;;;;;;;;;84.00;65.00;;;;;;;;4998030;28;51469;-42
2022/01/20 15:54:45;;;;;;;;;88.50;68.25;;;;;;;;4996689;28;51465;-42
2022/01/20 15:57:30;;;;;;;;;76.00;62.00;;;;;;;;4986549;28;51426;-41
2022/01/20 16:00:34;;;;;;;;;90.25;74.75;;;;;;;;4988223;28;51169;-42
2022/01/20 16:03:29;;;;;;;;;80.25;63.50;;;;;;;;4993238;28;51537;-41
2022/01/20 16:06:36;;;;;;;;;77.25;68.00;;;;;;;;4995622;28;51258;-42
2022/01/20 16:09:22;;;;;;;;;89.75;76.75;;;;;;;;4993705;28;51154;-41
2022/01/20 16:12:08;;;;;;;;;83.50;73.00;;;;;;;;4990053;28;51342;-41
2022/01/20 16:14:59;;;;;;;;;76.50;68.25;;;;;;;;4996493;28;51106;-42
2022/01/20 16:17:43;;;;;;;;;81.75;66.75;;;;;;;;4997634;28;51133;-41
2022/01/20 16:20:28;;;;;;;;;81.75;65.50;;;;;;;;4994766;28;51161;-41
2022/01/20 16:23:27;;;;;;;;;80.25;68.25;;;;;;;;4986127;28;51077;-41
2022/01/20 16:26:15;;;;;;;;;85.50;72.25;;;;;;;;4995960;28;51146;-42
2022/01/20 16:29:00;;;;;;;;;78.00;66.00;;;;;;;;4987690;28;51157;-41
2022/01/20 16:31:46;;;;;;;;;80.00;66.00;;;;;;;;4990928;28;51178;-42
2022/01/20 16:34:30;;;;;;;;;78.75;71.75;;;;;;;;4984215;28;51153;-44
2022/01/20 16:37:19;;;;;;;;;74.00;63.00;;;;;;;;4988047;28;51113;-42
2022/01/20 16:40:28;;;;;;;;;88.50;73.50;;;;;;;;4985131;28;51232;-44
2022/01/20 16:43:12;;;;;;;;;84.50;74.00;;;;;;;;4947404;28;51568;-42
2022/01/20 16:45:57;;;;;;;;;77.75;63.75;;;;;;;;4985230;28;51201;-42
2022/01/20 16:48:44;;;;;;;;;74.75;61.00;;;;;;;;4989925;28;51153;-43
2022/01/20 16:51:30;;;;;;;;;167.25;149.25;;;;;;;;4988056;28;51153;-42
2022/01/20 16:54:24;;;;;;;;;294.50;265.75;;;;;;;;4982193;28;51573;-42
2022/01/20 16:57:08;;;;;;;;;282.75;230.75;;;;;;;;4989127;28;51072;-42
2022/01/20 17:00:03;;;;;;;;;327.00;266.00;;;;;;;;4994406;28;51143;-42
2022/01/20 17:03:12;;;;;;;;;608.80;507.40;;;;;;;;4990766;28;51149;-43
2022/01/20 17:05:59;;;;;;;;;584.00;479.00;;;;;;;;4992608;28;51165;-48
2022/01/20 17:08:43;;;;;;;;;460.25;383.25;;;;;;;;4978902;28;51282;-48
2022/01/20 17:11:28;;;;;;;;;371.50;313.25;;;;;;;;4953253;28;51264;-47
2022/01/20 17:14:16;;;;;;;;;254.00;218.25;;;;;;;;4972386;28;57973;-47
2022/01/20 17:17:02;;;;;;;;;187.25;158.00;;;;;;;;4975460;28;51140;-47